Weather at Flying E Airport

Public forecast

Using degrees Fahrenheit for public forecast. Weather courtesy of forecast.io.

Closest aviation weather report (METAR) to Flying E Airport

Closest report is Salem Municipal Airport/McNary Field, 5.8 nm (10.8 km) NW. Retrieved 2021/07/28 00:56 UTC (41 minutes ago):

KSLE 280056Z 00000KT 10SM CLR 32/08 A3000 RMK AO2 SLP156 T03170083

Closest aviation forecast (TAF) to Flying E Airport

Closest forecast is Salem Municipal Airport/McNary Field, 5.8 nm (10.8 km) NW. Retrieved 2021-07-28 00:22 UTC (1 hour ago):

TAF KSLE 272320Z 2800/2824 35007KT P6SM FEW100 BKN250 FM280400 VRB03KT P6SM SCT250